Time;durP1;ratioP1;P1;durP2;ratioP2;P2;SDS_P1;SDS_P2;PMS_P1;PMS_P2;Temp;Humidity;BMP_temperature;BMP_pressure;BME280_temperature;BME280_humidity;BME280_pressure;Samples;Min_cycle;Max_cycle;Signal;HPM_P1;HPM_P2
2024/01/18 00:02:11;;;;;;;3.70;1.23;;;;;;;;;;6302517;22;20002;-78
2024/01/18 00:04:57;;;;;;;3.35;1.30;;;;;;;;;;6302424;22;19998;-77
2024/01/18 00:07:42;;;;;;;3.38;1.70;;;;;;;;;;6298134;22;20002;-76
2024/01/18 00:10:28;;;;;;;2.15;1.25;;;;;;;;;;6294956;22;20003;-77
2024/01/18 00:13:13;;;;;;;2.75;1.50;;;;;;;;;;6295348;22;20025;-77
2024/01/18 00:15:58;;;;;;;2.17;1.13;;;;;;;;;;6299855;22;20006;-76
2024/01/18 00:18:43;;;;;;;2.22;0.98;;;;;;;;;;6302182;22;20048;-76
2024/01/18 00:21:29;;;;;;;1.52;1.10;;;;;;;;;;6299892;22;20044;-76
2024/01/18 00:24:14;;;;;;;1.98;1.10;;;;;;;;;;6301661;22;20006;-76
2024/01/18 00:27:00;;;;;;;1.65;1.10;;;;;;;;;;6302234;22;19995;-76
2024/01/18 00:29:45;;;;;;;1.65;1.20;;;;;;;;;;6299938;22;20006;-77
2024/01/18 00:32:31;;;;;;;1.17;0.90;;;;;;;;;;6300017;22;20086;-77
2024/01/18 00:35:16;;;;;;;1.45;1.30;;;;;;;;;;6302649;22;20085;-77
2024/01/18 00:38:01;;;;;;;3.10;1.80;;;;;;;;;;6296047;22;20005;-79
2024/01/18 00:40:46;;;;;;;2.25;1.42;;;;;;;;;;6295094;22;20037;-78
2024/01/18 00:43:32;;;;;;;3.50;1.98;;;;;;;;;;6294059;22;20629;-77
2024/01/18 00:46:18;;;;;;;1.33;0.85;;;;;;;;;;6294747;22;19994;-77
2024/01/18 00:49:04;;;;;;;1.33;1.20;;;;;;;;;;6297770;22;20026;-79
2024/01/18 00:51:50;;;;;;;1.88;1.20;;;;;;;;;;6302047;22;19995;-79
2024/01/18 00:54:35;;;;;;;2.40;1.13;;;;;;;;;;6298854;22;20030;-78
2024/01/18 00:57:20;;;;;;;1.25;1.10;;;;;;;;;;6299408;22;20029;-78
2024/01/18 01:00:06;;;;;;;1.23;1.00;;;;;;;;;;6300543;22;20078;-79
2024/01/18 01:02:51;;;;;;;2.35;1.40;;;;;;;;;;6301283;22;19999;-78
2024/01/18 01:05:36;;;;;;;3.03;1.20;;;;;;;;;;6299027;22;20085;-77
2024/01/18 01:08:22;;;;;;;5.93;1.75;;;;;;;;;;6302105;22;19998;-79
2024/01/18 01:11:10;;;;;;;1.70;1.10;;;;;;;;;;6301138;22;20002;-78
2024/01/18 01:13:55;;;;;;;4.00;1.20;;;;;;;;;;6301312;22;20447;-78
2024/01/18 01:16:40;;;;;;;2.47;1.05;;;;;;;;;;6298851;22;20020;-78
2024/01/18 01:19:25;;;;;;;1.90;1.13;;;;;;;;;;6298149;22;20009;-77
2024/01/18 01:22:11;;;;;;;1.45;1.13;;;;;;;;;;6294339;22;19994;-78
2024/01/18 01:24:56;;;;;;;2.83;1.08;;;;;;;;;;6296530;22;19998;-78
2024/01/18 01:27:52;;;;;;;1.88;1.02;;;;;;;;;;6296182;22;20001;-78
2024/01/18 01:30:37;;;;;;;3.55;1.90;;;;;;;;;;6294213;22;20025;-77
2024/01/18 01:33:24;;;;;;;4.15;1.25;;;;;;;;;;6300471;22;19994;-77
2024/01/18 01:36:10;;;;;;;1.88;0.93;;;;;;;;;;6299761;22;20053;-77
2024/01/18 01:38:55;;;;;;;2.28;1.00;;;;;;;;;;6294789;22;19998;-77
2024/01/18 01:41:40;;;;;;;1.48;1.10;;;;;;;;;;6294503;22;20009;-77
2024/01/18 01:44:25;;;;;;;1.83;1.00;;;;;;;;;;6294930;22;19999;-80
2024/01/18 01:47:11;;;;;;;1.88;1.00;;;;;;;;;;6294797;22;19999;-76
2024/01/18 01:49:56;;;;;;;1.20;0.95;;;;;;;;;;6295700;22;20002;-78
2024/01/18 01:52:42;;;;;;;1.65;1.10;;;;;;;;;;6299748;22;20341;-80
2024/01/18 01:55:27;;;;;;;1.83;1.10;;;;;;;;;;6299857;22;20470;-78
2024/01/18 01:58:14;;;;;;;1.15;0.90;;;;;;;;;;6300958;22;20105;-80
2024/01/18 02:00:59;;;;;;;1.02;0.98;;;;;;;;;;6301568;22;20002;-78
2024/01/18 02:03:45;;;;;;;2.05;1.10;;;;;;;;;;6301194;22;20003;-79
2024/01/18 02:06:31;;;;;;;2.17;0.93;;;;;;;;;;6298311;22;20446;-78
2024/01/18 02:09:17;;;;;;;2.00;1.10;;;;;;;;;;6301202;22;19995;-78
2024/01/18 02:12:03;;;;;;;2.08;0.90;;;;;;;;;;6278328;22;20072;-78
2024/01/18 02:14:48;;;;;;;1.25;0.88;;;;;;;;;;6298824;22;19999;-79
2024/01/18 02:17:34;;;;;;;1.98;1.00;;;;;;;;;;6299511;22;19998;-80
2024/01/18 02:20:19;;;;;;;1.38;0.98;;;;;;;;;;6303252;22;19995;-78
2024/01/18 02:23:05;;;;;;;1.35;0.90;;;;;;;;;;6274767;22;20498;-79
2024/01/18 02:25:50;;;;;;;1.10;0.90;;;;;;;;;;6298259;22;20002;-79
2024/01/18 02:28:51;;;;;;;1.80;0.90;;;;;;;;;;6295762;22;20117;-79
2024/01/18 02:31:36;;;;;;;1.70;1.05;;;;;;;;;;6303491;22;20057;-79
2024/01/18 02:34:21;;;;;;;3.42;1.20;;;;;;;;;;6301742;22;19994;-78
2024/01/18 02:37:07;;;;;;;1.30;0.90;;;;;;;;;;6302380;22;20002;-77
2024/01/18 02:39:52;;;;;;;1.00;0.90;;;;;;;;;;6303131;22;20006;-78
2024/01/18 02:42:38;;;;;;;1.25;0.82;;;;;;;;;;6300217;22;20631;-77
2024/01/18 02:45:24;;;;;;;0.98;0.88;;;;;;;;;;6301011;22;20002;-77
2024/01/18 02:48:09;;;;;;;3.17;1.00;;;;;;;;;;6295575;22;20002;-77
2024/01/18 02:50:55;;;;;;;1.58;1.30;;;;;;;;;;6298631;22;19999;-78
2024/01/18 02:53:40;;;;;;;1.45;0.80;;;;;;;;;;6303340;22;20003;-78
2024/01/18 02:56:25;;;;;;;2.08;1.02;;;;;;;;;;6299749;22;20002;-78
2024/01/18 02:59:11;;;;;;;1.60;0.80;;;;;;;;;;6303072;22;20443;-79
2024/01/18 03:01:56;;;;;;;2.00;1.10;;;;;;;;;;6306130;22;20002;-80
2024/01/18 03:04:42;;;;;;;1.45;0.85;;;;;;;;;;6305604;22;20078;-78
2024/01/18 03:07:28;;;;;;;3.00;1.10;;;;;;;;;;6303610;22;19991;-76
2024/01/18 03:10:14;;;;;;;1.50;0.98;;;;;;;;;;6300394;22;19995;-79
2024/01/18 03:12:59;;;;;;;0.98;0.70;;;;;;;;;;6306012;22;20019;-79
2024/01/18 03:15:44;;;;;;;2.65;0.88;;;;;;;;;;6307304;22;20450;-79
2024/01/18 03:18:29;;;;;;;2.40;1.08;;;;;;;;;;6305142;22;20044;-78
2024/01/18 03:21:14;;;;;;;1.58;0.82;;;;;;;;;;6306878;22;19998;-78
2024/01/18 03:24:00;;;;;;;2.88;0.80;;;;;;;;;;6307387;22;20069;-79
2024/01/18 03:26:45;;;;;;;2.20;1.45;;;;;;;;;;6303489;22;20109;-79
2024/01/18 03:29:30;;;;;;;1.05;1.00;;;;;;;;;;6301734;22;20044;-79
2024/01/18 03:32:16;;;;;;;1.45;0.90;;;;;;;;;;6301976;22;20052;-78
2024/01/18 03:35:01;;;;;;;3.78;1.08;;;;;;;;;;6300546;22;20030;-79
2024/01/18 03:37:46;;;;;;;0.80;0.80;;;;;;;;;;6300914;22;20033;-79
2024/01/18 03:40:32;;;;;;;1.48;0.80;;;;;;;;;;6300572;22;20309;-78
2024/01/18 03:43:17;;;;;;;1.52;0.85;;;;;;;;;;6301197;22;20025;-79
2024/01/18 03:46:02;;;;;;;1.15;0.95;;;;;;;;;;6281465;22;20007;-78
2024/01/18 03:48:47;;;;;;;1.83;0.80;;;;;;;;;;6302833;22;20065;-78
2024/01/18 03:51:33;;;;;;;2.40;1.15;;;;;;;;;;6303903;22;19999;-78
2024/01/18 03:54:18;;;;;;;3.38;1.25;;;;;;;;;;6306343;22;19995;-77
2024/01/18 03:57:04;;;;;;;2.13;1.10;;;;;;;;;;6278693;22;20003;-78
2024/01/18 03:59:49;;;;;;;3.22;1.45;;;;;;;;;;6299529;22;20124;-78
2024/01/18 04:02:35;;;;;;;1.50;1.00;;;;;;;;;;6298273;22;19998;-77
2024/01/18 04:05:20;;;;;;;2.08;0.90;;;;;;;;;;6294286;22;20003;-77
2024/01/18 04:08:06;;;;;;;2.83;0.98;;;;;;;;;;6302539;22;20007;-77
2024/01/18 04:10:51;;;;;;;2.60;1.27;;;;;;;;;;6302216;22;20026;-77
2024/01/18 04:13:36;;;;;;;3.88;1.00;;;;;;;;;;6299663;22;20015;-80
2024/01/18 04:16:21;;;;;;;1.70;1.10;;;;;;;;;;6302924;22;19998;-80
2024/01/18 04:19:06;;;;;;;2.10;0.85;;;;;;;;;;6303192;22;20105;-77
2024/01/18 04:21:52;;;;;;;4.05;0.90;;;;;;;;;;6297601;22;20055;-78
2024/01/18 04:24:37;;;;;;;1.92;0.90;;;;;;;;;;6295253;22;20483;-77
2024/01/18 04:27:22;;;;;;;3.63;1.52;;;;;;;;;;6297527;22;20002;-79
2024/01/18 04:30:08;;;;;;;1.88;1.08;;;;;;;;;;6293053;22;19999;-79
2024/01/18 04:32:53;;;;;;;8.68;4.10;;;;;;;;;;6301256;22;20026;-79
2024/01/18 04:35:38;;;;;;;9.43;5.35;;;;;;;;;;6302208;22;20502;-79
2024/01/18 04:38:24;;;;;;;10.77;7.25;;;;;;;;;;6299508;22;20034;-79
2024/01/18 04:41:09;;;;;;;9.65;6.22;;;;;;;;;;6301547;22;20002;-79
2024/01/18 04:43:54;;;;;;;10.07;6.88;;;;;;;;;;6300912;22;20041;-77
2024/01/18 04:46:39;;;;;;;11.93;8.15;;;;;;;;;;6299861;22;20055;-79
2024/01/18 04:49:25;;;;;;;14.55;7.63;;;;;;;;;;6296896;22;20128;-79
2024/01/18 04:52:10;;;;;;;10.02;6.68;;;;;;;;;;6297664;22;20025;-79
2024/01/18 04:54:58;;;;;;;11.50;7.28;;;;;;;;;;6280121;22;19991;-78
2024/01/18 04:57:44;;;;;;;11.35;7.65;;;;;;;;;;6297386;22;20339;-78
2024/01/18 05:00:29;;;;;;;10.48;6.82;;;;;;;;;;6294379;22;20125;-78
2024/01/18 05:03:14;;;;;;;10.20;6.78;;;;;;;;;;6293945;22;20006;-77
2024/01/18 05:06:00;;;;;;;9.38;6.40;;;;;;;;;;6298285;22;20011;-77
2024/01/18 05:08:45;;;;;;;12.52;7.38;;;;;;;;;;6298294;22;20027;-77
2024/01/18 05:11:30;;;;;;;9.13;6.28;;;;;;;;;;6289428;22;20335;-77
2024/01/18 05:14:16;;;;;;;8.95;6.05;;;;;;;;;;6273543;22;19990;-78
2024/01/18 05:17:10;;;;;;;9.57;6.90;;;;;;;;;;6298469;22;19995;-77
2024/01/18 05:19:55;;;;;;;10.05;6.63;;;;;;;;;;6301195;22;20077;-78
2024/01/18 05:22:42;;;;;;;9.75;6.05;;;;;;;;;;6295966;22;19994;-78
2024/01/18 05:25:27;;;;;;;9.50;6.45;;;;;;;;;;6273785;22;20468;-77
2024/01/18 05:28:12;;;;;;;10.30;6.53;;;;;;;;;;6294133;22;20025;-79
2024/01/18 05:30:57;;;;;;;10.40;6.97;;;;;;;;;;6296060;22;20029;-79
2024/01/18 05:33:42;;;;;;;10.18;6.50;;;;;;;;;;6301339;22;20034;-79
2024/01/18 05:36:58;;;;;;;10.27;7.03;;;;;;;;;;6299604;22;20022;-81
2024/01/18 05:39:44;;;;;;;11.40;6.78;;;;;;;;;;6297747;22;20044;-79
2024/01/18 05:42:29;;;;;;;9.18;6.28;;;;;;;;;;6301058;22;20093;-78
2024/01/18 05:45:15;;;;;;;10.27;6.35;;;;;;;;;;6296134;22;19999;-80
2024/01/18 05:48:01;;;;;;;9.35;6.10;;;;;;;;;;6295341;22;19999;-78
2024/01/18 05:50:47;;;;;;;11.00;6.80;;;;;;;;;;6294882;22;20435;-78
2024/01/18 05:53:32;;;;;;;11.27;6.68;;;;;;;;;;6300516;22;20683;-78
2024/01/18 05:56:17;;;;;;;10.63;7.05;;;;;;;;;;6301069;22;20482;-79
2024/01/18 05:59:06;;;;;;;9.93;6.75;;;;;;;;;;6298919;22;20308;-79
2024/01/18 06:01:55;;;;;;;9.88;6.93;;;;;;;;;;6297454;22;20308;-78
2024/01/18 06:04:40;;;;;;;9.82;6.85;;;;;;;;;;6297733;22;20003;-78
2024/01/18 06:07:26;;;;;;;12.05;8.10;;;;;;;;;;6292667;22;20017;-78
2024/01/18 06:10:11;;;;;;;9.20;6.32;;;;;;;;;;6294828;22;20085;-79
2024/01/18 06:12:56;;;;;;;9.48;5.80;;;;;;;;;;6274378;22;20038;-77
2024/01/18 06:15:41;;;;;;;8.93;5.72;;;;;;;;;;6296189;22;19995;-77
2024/01/18 06:18:27;;;;;;;7.97;5.30;;;;;;;;;;6299509;22;20003;-79
2024/01/18 06:21:12;;;;;;;7.72;5.15;;;;;;;;;;6302051;22;20006;-79
2024/01/18 06:23:57;;;;;;;6.47;4.00;;;;;;;;;;6299302;22;19999;-79
2024/01/18 06:26:42;;;;;;;6.60;4.05;;;;;;;;;;6296530;22;20434;-79
2024/01/18 06:29:30;;;;;;;6.13;3.67;;;;;;;;;;6299763;22;20085;-79
2024/01/18 06:32:15;;;;;;;4.75;3.20;;;;;;;;;;6299502;22;20029;-78
2024/01/18 06:35:01;;;;;;;5.03;3.10;;;;;;;;;;6299160;22;19998;-78
2024/01/18 06:37:46;;;;;;;3.95;2.70;;;;;;;;;;6296342;22;20393;-76
2024/01/18 06:40:31;;;;;;;5.82;2.70;;;;;;;;;;6296779;22;20006;-76
2024/01/18 06:43:16;;;;;;;3.78;2.47;;;;;;;;;;6292796;22;19999;-78
2024/01/18 06:46:02;;;;;;;3.50;2.70;;;;;;;;;;6294393;22;20237;-76
2024/01/18 06:48:53;;;;;;;2.53;2.10;;;;;;;;;;6293117;22;20052;-79
2024/01/18 06:51:39;;;;;;;2.70;1.90;;;;;;;;;;6293396;22;20018;-83
2024/01/18 06:54:24;;;;;;;3.45;2.10;;;;;;;;;;6296775;22;19999;-81
2024/01/18 06:57:12;;;;;;;4.13;2.22;;;;;;;;;;6295955;22;19999;-81
2024/01/18 06:59:57;;;;;;;3.92;2.25;;;;;;;;;;6295769;22;20376;-80
2024/01/18 07:02:42;;;;;;;2.03;1.63;;;;;;;;;;6299883;22;19999;-81
2024/01/18 07:05:28;;;;;;;2.08;1.40;;;;;;;;;;6300192;22;20002;-81
2024/01/18 07:08:13;;;;;;;2.25;1.42;;;;;;;;;;6304254;22;20006;-81
2024/01/18 07:10:58;;;;;;;2.17;1.70;;;;;;;;;;6303243;22;20006;-81
2024/01/18 07:13:43;;;;;;;2.55;1.40;;;;;;;;;;6300949;22;20473;-79
2024/01/18 07:16:29;;;;;;;2.30;1.35;;;;;;;;;;6301676;22;20002;-80
2024/01/18 07:19:14;;;;;;;2.80;1.50;;;;;;;;;;6303060;22;20029;-79
2024/01/18 07:21:59;;;;;;;2.78;2.00;;;;;;;;;;6298497;22;19999;-80
2024/01/18 07:24:47;;;;;;;2.45;1.75;;;;;;;;;;6295953;22;20605;-79
2024/01/18 07:27:32;;;;;;;1.92;1.70;;;;;;;;;;6296472;22;20026;-81
2024/01/18 07:30:17;;;;;;;2.28;1.58;;;;;;;;;;6298850;22;20052;-81
2024/01/18 07:33:03;;;;;;;2.03;1.63;;;;;;;;;;6297618;22;20340;-81
2024/01/18 07:35:58;;;;;;;;;;;;;;;;;;;;;
2024/01/18 07:38:44;;;;;;;2.00;1.58;;;;;;;;;;6319322;22;20006;-81
2024/01/18 07:41:29;;;;;;;2.65;1.70;;;;;;;;;;6306620;22;20063;-80
2024/01/18 07:44:14;;;;;;;2.13;1.80;;;;;;;;;;6311265;22;20009;-80
2024/01/18 07:47:00;;;;;;;2.55;1.67;;;;;;;;;;6311057;22;20461;-79
2024/01/18 07:49:46;;;;;;;1.90;1.60;;;;;;;;;;6315149;22;20078;-79
2024/01/18 07:52:35;;;;;;;1.70;1.30;;;;;;;;;;6304960;22;20026;-79
2024/01/18 07:55:21;;;;;;;2.17;1.65;;;;;;;;;;6309496;22;20002;-79
2024/01/18 07:58:04;;;;;;;2.80;1.67;;;;;;;;;;6327262;22;20041;-82
2024/01/18 08:00:50;;;;;;;2.38;1.60;;;;;;;;;;6299108;22;19999;-80
2024/01/18 08:03:35;;;;;;;2.33;1.65;;;;;;;;;;6298375;22;20084;-83
2024/01/18 08:06:21;;;;;;;2.25;1.45;;;;;;;;;;6279164;22;20003;-81
2024/01/18 08:09:06;;;;;;;1.42;1.33;;;;;;;;;;6304587;22;20006;-81
2024/01/18 08:11:51;;;;;;;2.20;1.60;;;;;;;;;;6303182;22;20094;-82
2024/01/18 08:14:43;;;;;;;2.22;1.75;;;;;;;;;;6302901;22;19999;-82
2024/01/18 08:17:28;;;;;;;2.08;1.65;;;;;;;;;;6301898;22;20074;-80
2024/01/18 08:20:14;;;;;;;2.03;1.50;;;;;;;;;;6302945;22;20324;-80
2024/01/18 08:22:59;;;;;;;4.85;1.80;;;;;;;;;;6303252;22;20003;-82
2024/01/18 08:25:44;;;;;;;3.13;1.83;;;;;;;;;;6300612;22;20558;-82
2024/01/18 08:28:32;;;;;;;2.30;1.95;;;;;;;;;;6300772;22;20002;-81
2024/01/18 08:31:17;;;;;;;2.25;1.77;;;;;;;;;;6304327;22;20010;-81
2024/01/18 08:34:02;;;;;;;2.28;1.92;;;;;;;;;;6303122;22;20038;-82
2024/01/18 08:36:51;;;;;;;2.22;1.52;;;;;;;;;;6299368;22;20038;-81
2024/01/18 08:39:36;;;;;;;4.50;1.93;;;;;;;;;;6296869;22;20056;-80
2024/01/18 08:42:21;;;;;;;2.70;2.08;;;;;;;;;;6297652;22;20228;-80
2024/01/18 08:45:07;;;;;;;3.70;2.10;;;;;;;;;;6295627;22;20074;-79
2024/01/18 08:47:52;;;;;;;2.38;1.65;;;;;;;;;;6299267;22;20010;-79
2024/01/18 08:50:40;;;;;;;1.90;1.60;;;;;;;;;;6298956;22;19995;-79
2024/01/18 08:53:26;;;;;;;2.55;1.90;;;;;;;;;;6301235;22;19995;-82
2024/01/18 08:56:12;;;;;;;3.72;2.30;;;;;;;;;;6302574;22;20042;-82
2024/01/18 08:58:57;;;;;;;2.13;1.58;;;;;;;;;;6300333;22;20003;-82
2024/01/18 09:01:42;;;;;;;3.33;2.33;;;;;;;;;;6299229;22;20011;-81
2024/01/18 09:04:28;;;;;;;2.35;1.85;;;;;;;;;;6299473;22;20002;-81
2024/01/18 09:07:13;;;;;;;4.18;2.17;;;;;;;;;;6297488;22;19994;-80
2024/01/18 09:09:58;;;;;;;2.28;1.80;;;;;;;;;;6295938;22;20025;-81
2024/01/18 09:12:45;;;;;;;2.90;2.10;;;;;;;;;;6295459;22;20051;-84
2024/01/18 09:15:30;;;;;;;2.10;1.70;;;;;;;;;;6295573;22;19994;-83
2024/01/18 09:18:16;;;;;;;3.30;1.92;;;;;;;;;;6295987;22;21144;-81
2024/01/18 09:21:01;;;;;;;2.88;1.75;;;;;;;;;;6297474;22;20003;-81
2024/01/18 09:23:46;;;;;;;2.97;1.70;;;;;;;;;;6301690;22;20034;-80
2024/01/18 09:26:32;;;;;;;2.58;1.75;;;;;;;;;;6299661;22;20105;-81
2024/01/18 09:29:17;;;;;;;4.20;1.70;;;;;;;;;;6297651;22;20021;-83
2024/01/18 09:32:03;;;;;;;2.00;1.50;;;;;;;;;;6300649;22;20034;-79
2024/01/18 09:34:48;;;;;;;2.83;1.77;;;;;;;;;;6302723;22;20083;-80
2024/01/18 09:37:35;;;;;;;3.97;1.70;;;;;;;;;;6298943;22;20001;-80
2024/01/18 09:40:21;;;;;;;1.80;1.20;;;;;;;;;;6301734;22;20089;-81
2024/01/18 09:43:07;;;;;;;2.15;1.20;;;;;;;;;;6301114;22;20054;-80
2024/01/18 09:45:55;;;;;;;2.60;1.27;;;;;;;;;;6280120;22;20006;-79
2024/01/18 09:48:41;;;;;;;1.00;0.88;;;;;;;;;;6298814;22;20021;-80
2024/01/18 09:51:26;;;;;;;3.45;1.00;;;;;;;;;;6298149;22;19995;-80
2024/01/18 09:54:11;;;;;;;3.08;1.10;;;;;;;;;;6296184;22;19997;-80
2024/01/18 09:57:00;;;;;;;1.05;0.77;;;;;;;;;;6294784;22;20019;-80
2024/01/18 09:59:47;;;;;;;0.75;0.73;;;;;;;;;;6295151;22;20368;-81
2024/01/18 10:02:32;;;;;;;1.20;0.90;;;;;;;;;;6292244;22;20060;-79
2024/01/18 10:05:18;;;;;;;1.13;0.90;;;;;;;;;;6296089;22;20503;-79
2024/01/18 10:08:03;;;;;;;1.38;1.10;;;;;;;;;;6301331;22;19999;-79
2024/01/18 10:10:49;;;;;;;2.40;0.93;;;;;;;;;;6301914;22;19999;-80
2024/01/18 10:13:52;;;;;;;0.70;0.70;;;;;;;;;;6299047;22;20022;-80
2024/01/18 10:16:38;;;;;;;1.50;0.90;;;;;;;;;;6299153;22;20002;-79
2024/01/18 10:19:25;;;;;;;1.63;0.93;;;;;;;;;;6299971;22;20560;-80
2024/01/18 10:22:10;;;;;;;2.45;1.30;;;;;;;;;;6300045;22;20030;-77
2024/01/18 10:24:56;;;;;;;1.05;0.95;;;;;;;;;;6301604;22;20338;-78
2024/01/18 10:27:42;;;;;;;1.75;0.90;;;;;;;;;;6300275;22;19998;-82
2024/01/18 10:30:27;;;;;;;1.48;1.00;;;;;;;;;;6298661;22;20438;-80
2024/01/18 10:33:12;;;;;;;1.92;0.75;;;;;;;;;;6277481;22;19998;-81
2024/01/18 10:35:57;;;;;;;0.70;0.70;;;;;;;;;;6295560;22;19998;-79
2024/01/18 10:38:42;;;;;;;0.82;0.70;;;;;;;;;;6299455;22;20094;-82
2024/01/18 10:41:28;;;;;;;1.15;1.05;;;;;;;;;;6301189;22;20010;-81
2024/01/18 10:44:14;;;;;;;1.20;1.10;;;;;;;;;;6303143;22;20030;-83
2024/01/18 10:47:05;;;;;;;1.00;0.80;;;;;;;;;;6302917;22;20619;-80
2024/01/18 10:49:53;;;;;;;0.98;0.93;;;;;;;;;;6304061;22;19999;-81
2024/01/18 10:52:39;;;;;;;2.00;1.00;;;;;;;;;;6301517;22;20034;-81
2024/01/18 10:55:24;;;;;;;1.75;0.98;;;;;;;;;;6303707;22;19995;-81
2024/01/18 10:58:09;;;;;;;0.82;0.75;;;;;;;;;;6303330;22;20052;-81
2024/01/18 11:00:56;;;;;;;1.48;1.27;;;;;;;;;;6300813;22;20056;-81
2024/01/18 11:03:43;;;;;;;1.65;1.20;;;;;;;;;;6295105;22;19995;-81
2024/01/18 11:06:28;;;;;;;1.40;0.95;;;;;;;;;;6295459;22;20056;-81
2024/01/18 11:09:14;;;;;;;1.45;1.35;;;;;;;;;;6298015;22;20033;-79
2024/01/18 11:11:59;;;;;;;2.42;1.38;;;;;;;;;;6302769;22;20014;-80
2024/01/18 11:14:46;;;;;;;1.02;0.90;;;;;;;;;;6303186;22;20026;-78
2024/01/18 11:17:33;;;;;;;0.98;0.88;;;;;;;;;;6301853;22;20037;-80
2024/01/18 11:20:18;;;;;;;3.58;1.10;;;;;;;;;;6303771;22;19998;-80
2024/01/18 11:23:04;;;;;;;1.55;1.10;;;;;;;;;;6302910;22;19999;-79
2024/01/18 11:25:49;;;;;;;1.02;0.90;;;;;;;;;;6302158;22;20005;-79
2024/01/18 11:28:35;;;;;;;1.80;1.38;;;;;;;;;;6301290;22;20070;-79
2024/01/18 11:31:40;;;;;;;0.70;0.70;;;;;;;;;;6302345;22;20434;-79
2024/01/18 11:34:36;;;;;;;2.00;1.08;;;;;;;;;;6302999;22;19991;-78
2024/01/18 11:37:24;;;;;;;1.58;1.30;;;;;;;;;;6298602;22;19994;-78
2024/01/18 11:40:10;;;;;;;1.20;1.10;;;;;;;;;;6296728;22;20070;-80
2024/01/18 11:42:56;;;;;;;2.40;1.50;;;;;;;;;;6297424;22;19995;-76
2024/01/18 11:45:49;;;;;;;2.00;1.38;;;;;;;;;;6295548;22;20003;-79
2024/01/18 11:48:35;;;;;;;1.50;1.10;;;;;;;;;;6295951;22;19995;-81
2024/01/18 11:51:20;;;;;;;1.50;1.38;;;;;;;;;;6299285;22;20399;-81
2024/01/18 11:54:05;;;;;;;1.40;1.30;;;;;;;;;;6302234;22;19994;-77
2024/01/18 11:56:52;;;;;;;1.80;1.40;;;;;;;;;;6302476;22;20085;-82
2024/01/18 11:59:39;;;;;;;2.30;1.80;;;;;;;;;;6298764;22;19999;-79
2024/01/18 12:02:26;;;;;;;4.55;1.60;;;;;;;;;;6302543;22;20427;-81
2024/01/18 12:05:11;;;;;;;2.35;1.50;;;;;;;;;;6302359;22;20343;-80
2024/01/18 12:07:56;;;;;;;4.25;1.73;;;;;;;;;;6301933;22;19994;-81
2024/01/18 12:10:42;;;;;;;2.42;1.65;;;;;;;;;;6297710;22;19999;-79
2024/01/18 12:13:28;;;;;;;2.90;1.92;;;;;;;;;;6294560;22;20014;-78
2024/01/18 12:16:13;;;;;;;2.65;2.05;;;;;;;;;;6277963;22;20060;-78
2024/01/18 12:18:59;;;;;;;2.72;1.90;;;;;;;;;;6301926;22;20052;-77
2024/01/18 12:21:44;;;;;;;3.53;2.33;;;;;;;;;;6300049;22;20492;-79
2024/01/18 12:24:29;;;;;;;2.58;1.88;;;;;;;;;;6298109;22;20321;-78
2024/01/18 12:27:15;;;;;;;3.60;2.20;;;;;;;;;;6296773;22;20023;-79
2024/01/18 12:30:01;;;;;;;3.42;2.10;;;;;;;;;;6294513;22;20017;-77
2024/01/18 12:32:48;;;;;;;4.95;2.47;;;;;;;;;;6294764;22;20045;-80
2024/01/18 12:35:36;;;;;;;6.20;3.03;;;;;;;;;;6294392;22;19995;-78
2024/01/18 12:38:24;;;;;;;3.97;2.40;;;;;;;;;;6296113;22;20060;-78
2024/01/18 12:41:09;;;;;;;4.53;2.78;;;;;;;;;;6298453;22;19999;-80
2024/01/18 12:43:55;;;;;;;4.93;2.63;;;;;;;;;;6300939;22;19999;-79
2024/01/18 12:46:40;;;;;;;3.22;2.38;;;;;;;;;;6300857;22;20105;-78
2024/01/18 12:49:26;;;;;;;3.80;2.47;;;;;;;;;;6298210;22;20022;-79
2024/01/18 12:52:13;;;;;;;4.40;2.90;;;;;;;;;;6302277;22;19999;-78
2024/01/18 12:54:59;;;;;;;3.47;2.40;;;;;;;;;;6300854;22;20003;-78
2024/01/18 12:57:45;;;;;;;4.55;2.75;;;;;;;;;;6298650;22;20475;-81
2024/01/18 13:00:33;;;;;;;4.38;3.22;;;;;;;;;;6295317;22;20086;-82
2024/01/18 13:03:20;;;;;;;4.38;3.08;;;;;;;;;;6296661;22;20085;-80
2024/01/18 13:06:06;;;;;;;4.97;3.10;;;;;;;;;;6297146;22;19998;-78
2024/01/18 13:08:51;;;;;;;3.67;2.63;;;;;;;;;;6301069;22;19998;-80
2024/01/18 13:11:36;;;;;;;9.30;3.42;;;;;;;;;;6298950;22;20046;-80
2024/01/18 13:14:22;;;;;;;4.68;3.00;;;;;;;;;;6302319;22;20002;-80
2024/01/18 13:17:07;;;;;;;4.47;3.22;;;;;;;;;;6301415;22;19999;-79
2024/01/18 13:19:55;;;;;;;4.78;2.90;;;;;;;;;;6301325;22;20009;-77
2024/01/18 13:22:40;;;;;;;5.22;3.10;;;;;;;;;;6299361;22;20002;-79
2024/01/18 13:25:26;;;;;;;4.60;3.13;;;;;;;;;;6299692;22;20355;-80
2024/01/18 13:28:11;;;;;;;5.30;3.38;;;;;;;;;;6294991;22;19995;-79
2024/01/18 13:30:56;;;;;;;4.78;3.28;;;;;;;;;;6296804;22;20091;-80
2024/01/18 13:33:45;;;;;;;5.28;3.70;;;;;;;;;;6293556;22;20036;-80
2024/01/18 13:36:31;;;;;;;6.38;3.95;;;;;;;;;;6296898;22;20498;-80
2024/01/18 13:39:17;;;;;;;6.07;3.53;;;;;;;;;;6279385;22;20502;-80
2024/01/18 13:42:02;;;;;;;7.15;3.60;;;;;;;;;;6298193;22;20183;-80
2024/01/18 13:44:47;;;;;;;7.63;5.00;;;;;;;;;;6292886;22;20102;-80
2024/01/18 13:47:33;;;;;;;6.05;3.75;;;;;;;;;;6296387;22;20354;-80
2024/01/18 13:50:21;;;;;;;8.40;4.60;;;;;;;;;;6300527;22;20002;-80
2024/01/18 13:53:06;;;;;;;6.03;4.07;;;;;;;;;;6300736;22;20021;-80
2024/01/18 13:55:53;;;;;;;7.15;4.30;;;;;;;;;;6300893;22;20026;-81
2024/01/18 13:58:39;;;;;;;8.20;5.13;;;;;;;;;;6298459;22;20003;-79
2024/01/18 14:01:24;;;;;;;8.77;4.50;;;;;;;;;;6301854;22;19999;-79
2024/01/18 14:04:09;;;;;;;9.45;5.68;;;;;;;;;;6301158;22;20493;-79
2024/01/18 14:06:54;;;;;;;10.75;4.97;;;;;;;;;;6296329;22;20002;-79
2024/01/18 14:09:40;;;;;;;8.20;4.88;;;;;;;;;;6294016;22;19999;-82
2024/01/18 14:12:25;;;;;;;11.15;6.35;;;;;;;;;;6295341;22;20015;-80
2024/01/18 14:15:11;;;;;;;8.27;4.90;;;;;;;;;;6297978;22;20191;-79
2024/01/18 14:17:56;;;;;;;10.60;6.93;;;;;;;;;;6303025;22;19991;-83
2024/01/18 14:20:41;;;;;;;9.75;5.15;;;;;;;;;;6300171;22;20002;-80
2024/01/18 14:23:28;;;;;;;7.68;4.63;;;;;;;;;;6298480;22;19999;-81
2024/01/18 14:26:15;;;;;;;9.88;6.20;;;;;;;;;;6297826;22;19998;-81
2024/01/18 14:29:02;;;;;;;8.60;5.50;;;;;;;;;;6296375;22;19995;-78
2024/01/18 14:31:47;;;;;;;8.45;5.47;;;;;;;;;;6299030;22;19998;-80
2024/01/18 14:34:32;;;;;;;9.60;6.03;;;;;;;;;;6299590;22;20206;-78
2024/01/18 14:37:17;;;;;;;9.90;5.43;;;;;;;;;;6302038;22;20443;-79
2024/01/18 14:40:03;;;;;;;9.18;5.22;;;;;;;;;;6302452;22;20445;-79
2024/01/18 14:42:48;;;;;;;9.25;5.32;;;;;;;;;;6279357;22;19999;-79
2024/01/18 14:45:33;;;;;;;10.43;5.35;;;;;;;;;;6299875;22;20308;-80
2024/01/18 14:48:19;;;;;;;10.43;5.63;;;;;;;;;;6302989;22;20443;-78
2024/01/18 14:51:04;;;;;;;9.73;5.72;;;;;;;;;;6303164;22;20440;-78
2024/01/18 14:53:49;;;;;;;10.50;6.07;;;;;;;;;;6295582;22;20077;-80
2024/01/18 14:56:34;;;;;;;9.48;5.57;;;;;;;;;;6295501;22;20010;-80
2024/01/18 14:59:20;;;;;;;11.48;5.85;;;;;;;;;;6298073;22;20006;-78
2024/01/18 15:02:05;;;;;;;10.30;5.63;;;;;;;;;;6295624;22;20139;-78
2024/01/18 15:04:50;;;;;;;10.55;6.50;;;;;;;;;;6298656;22;19999;-77
2024/01/18 15:07:35;;;;;;;10.75;6.30;;;;;;;;;;6301293;22;20374;-78
2024/01/18 15:10:21;;;;;;;12.80;7.50;;;;;;;;;;6300827;22;20002;-79
2024/01/18 15:13:06;;;;;;;12.50;7.03;;;;;;;;;;6302553;22;20425;-78
2024/01/18 15:15:51;;;;;;;10.43;6.68;;;;;;;;;;6302264;22;19999;-79
2024/01/18 15:18:36;;;;;;;10.25;6.35;;;;;;;;;;6300611;22;20309;-78
2024/01/18 15:21:22;;;;;;;10.73;6.05;;;;;;;;;;6301015;22;20041;-80
2024/01/18 15:24:08;;;;;;;9.93;6.38;;;;;;;;;;6301631;22;20280;-77
2024/01/18 15:26:54;;;;;;;12.15;6.65;;;;;;;;;;6302078;22;20007;-80
2024/01/18 15:29:41;;;;;;;10.73;6.60;;;;;;;;;;6295903;22;20086;-77
2024/01/18 15:32:26;;;;;;;10.73;6.85;;;;;;;;;;6298567;22;20524;-77
2024/01/18 15:35:11;;;;;;;13.52;7.55;;;;;;;;;;6295641;22;20010;-80
2024/01/18 15:37:57;;;;;;;10.45;6.88;;;;;;;;;;6298301;22;19999;-80
2024/01/18 15:40:42;;;;;;;13.23;7.68;;;;;;;;;;6303404;22;20056;-78
2024/01/18 15:43:30;;;;;;;12.82;7.65;;;;;;;;;;6298879;22;20643;-79
2024/01/18 15:46:20;;;;;;;14.82;7.57;;;;;;;;;;6302173;22;19998;-79
2024/01/18 15:49:06;;;;;;;11.93;7.25;;;;;;;;;;6310519;22;20510;-78
2024/01/18 15:51:51;;;;;;;13.75;7.82;;;;;;;;;;6308013;22;20072;-79
2024/01/18 15:54:37;;;;;;;10.98;7.50;;;;;;;;;;6306736;22;19995;-78
2024/01/18 15:57:23;;;;;;;11.75;7.80;;;;;;;;;;6307935;22;19991;-78
2024/01/18 16:00:08;;;;;;;13.93;7.90;;;;;;;;;;6304206;22;20003;-78
2024/01/18 16:02:53;;;;;;;12.48;7.88;;;;;;;;;;6305563;22;20002;-79
2024/01/18 16:05:39;;;;;;;15.38;7.80;;;;;;;;;;6303993;22;20007;-79
2024/01/18 16:08:24;;;;;;;14.30;8.57;;;;;;;;;;6301281;22;20046;-79
2024/01/18 16:11:10;;;;;;;19.98;9.00;;;;;;;;;;6303922;22;20556;-79
2024/01/18 16:13:56;;;;;;;13.25;8.05;;;;;;;;;;6303691;22;20026;-79
2024/01/18 16:16:41;;;;;;;20.48;10.27;;;;;;;;;;6303391;22;19995;-80
2024/01/18 16:19:26;;;;;;;10.60;6.72;;;;;;;;;;6294948;22;20026;-79
2024/01/18 16:22:11;;;;;;;16.33;8.75;;;;;;;;;;6294468;22;20447;-79
2024/01/18 16:24:57;;;;;;;15.40;8.40;;;;;;;;;;6299126;22;20002;-79
2024/01/18 16:27:42;;;;;;;15.05;8.25;;;;;;;;;;6302034;22;20543;-79
2024/01/18 16:30:27;;;;;;;14.82;7.50;;;;;;;;;;6299499;22;20055;-78
2024/01/18 16:33:13;;;;;;;15.38;8.70;;;;;;;;;;6303128;22;19995;-79